Time;durP1;ratioP1;P1;durP2;ratioP2;P2;SDS_P1;SDS_P2;PMS_P1;PMS_P2;Temp;Humidity;BMP_temperature;BMP_pressure;BME280_temperature;BME280_humidity;BME280_pressure;Samples;Min_cycle;Max_cycle;Signal;HPM_P1;HPM_P2
2021/11/09 00:00:05;;;;;;;24.33;4.72;;;;;;;6.86;86.56;102589.25;5044086;28;19941;-71
2021/11/09 00:02:31;;;;;;;19.05;5.00;;;;;;;6.92;87.53;102588.63;5043426;28;20037;-71
2021/11/09 00:04:57;;;;;;;16.27;4.50;;;;;;;6.96;87.31;102583.59;5043348;28;20052;-71
2021/11/09 00:07:27;;;;;;;19.92;4.65;;;;;;;7.04;86.89;102586.53;5043550;28;20060;-71
2021/11/09 00:09:57;;;;;;;23.40;4.63;;;;;;;7.10;87.17;102583.28;5042381;28;20029;-71
2021/11/09 00:12:32;;;;;;;15.73;4.07;;;;;;;7.13;86.08;102591.25;5043968;28;20037;-70
2021/11/09 00:14:59;;;;;;;20.42;4.82;;;;;;;7.15;86.17;102586.97;5043467;28;20025;-71
2021/11/09 00:17:25;;;;;;;19.95;4.55;;;;;;;7.14;86.19;102583.44;5043045;28;20096;-71
2021/11/09 00:19:51;;;;;;;30.38;5.70;;;;;;;7.10;85.75;102578.94;5043979;28;20509;-71
2021/11/09 00:22:18;;;;;;;17.17;5.35;;;;;;;7.04;86.02;102581.31;5043395;28;20560;-70
2021/11/09 00:24:44;;;;;;;17.23;5.22;;;;;;;7.02;86.04;102583.84;5055051;28;20033;-71
2021/11/09 00:27:10;;;;;;;22.85;4.72;;;;;;;7.01;86.30;102571.63;5044237;28;20029;-71
2021/11/09 00:29:36;;;;;;;18.83;4.43;;;;;;;7.03;86.26;102577.81;5044047;28;20090;-71
2021/11/09 00:32:04;;;;;;;20.90;4.70;;;;;;;7.03;85.93;102575.19;5044004;28;20037;-71
2021/11/09 00:34:29;;;;;;;22.88;5.25;;;;;;;7.07;85.16;102572.69;5042762;28;20633;-71
2021/11/09 00:36:55;;;;;;;23.15;5.68;;;;;;;7.07;85.25;102580.53;5044179;28;20056;-71
2021/11/09 00:39:21;;;;;;;21.50;5.70;;;;;;;7.07;85.71;102575.28;5041012;28;20095;-70
2021/11/09 00:41:46;;;;;;;24.23;5.13;;;;;;;7.06;85.05;102573.53;5043970;28;20381;-71
2021/11/09 00:44:12;;;;;;;22.25;5.68;;;;;;;7.01;85.04;102573.31;5043710;28;20037;-71
2021/11/09 00:46:38;;;;;;;21.80;5.10;;;;;;;6.94;85.17;102574.81;5043900;28;20029;-71
2021/11/09 00:49:03;;;;;;;22.15;5.05;;;;;;;6.90;85.71;102575.53;5043231;28;20064;-71
2021/11/09 00:51:29;;;;;;;16.40;5.20;;;;;;;6.91;85.88;102576.41;5044151;28;20091;-71
2021/11/09 00:53:54;;;;;;;22.10;5.22;;;;;;;6.91;85.53;102566.84;5043451;28;20087;-71
2021/11/09 00:56:20;;;;;;;26.98;5.57;;;;;;;6.93;85.58;102579.97;5043278;28;20033;-71
2021/11/09 00:58:45;;;;;;;22.08;4.80;;;;;;;6.94;85.11;102582.66;5040006;28;20059;-71
2021/11/09 01:01:10;;;;;;;17.17;4.43;;;;;;;6.90;85.70;102585.06;5040873;28;20034;-72
2021/11/09 01:03:36;;;;;;;21.08;5.32;;;;;;;6.87;85.83;102578.00;5051167;28;20057;-71
2021/11/09 01:06:01;;;;;;;18.70;4.50;;;;;;;6.86;85.73;102576.19;5043590;28;20037;-71
2021/11/09 01:08:27;;;;;;;18.30;4.93;;;;;;;6.85;86.14;102573.53;5042123;28;20548;-71
2021/11/09 01:10:54;;;;;;;16.85;4.95;;;;;;;6.83;85.96;102578.69;5041968;28;20017;-71
2021/11/09 01:13:22;;;;;;;24.67;5.10;;;;;;;6.83;85.67;102576.09;5043065;28;20036;-71
2021/11/09 01:15:50;;;;;;;22.05;5.43;;;;;;;6.85;85.79;102577.03;5039048;28;20067;-71
2021/11/09 01:18:22;;;;;;;22.85;5.55;;;;;;;6.89;86.82;102570.22;5043137;28;20053;-70
2021/11/09 01:20:48;;;;;;;23.90;5.93;;;;;;;6.89;86.09;102581.56;5037858;28;20397;-70
2021/11/09 01:23:14;;;;;;;22.45;5.30;;;;;;;6.93;86.33;102573.00;5043630;28;20033;-71
2021/11/09 01:25:40;;;;;;;16.85;5.40;;;;;;;6.96;85.39;102565.31;5043250;28;20041;-71
2021/11/09 01:28:07;;;;;;;19.88;5.00;;;;;;;6.98;85.33;102571.50;5043110;28;20034;-71
2021/11/09 01:30:33;;;;;;;24.25;6.35;;;;;;;6.99;85.08;102568.06;5047510;28;20090;-71
2021/11/09 01:32:59;;;;;;;21.67;5.35;;;;;;;6.93;84.68;102570.41;5048126;28;20487;-70
2021/11/09 01:35:25;;;;;;;21.20;5.40;;;;;;;6.89;85.16;102562.38;5042964;28;20079;-71
2021/11/09 01:37:51;;;;;;;22.88;6.18;;;;;;;6.85;84.73;102560.47;5040415;28;20068;-71
2021/11/09 01:40:19;;;;;;;25.40;5.40;;;;;;;6.85;85.14;102565.72;5041544;28;20429;-71
2021/11/09 01:42:45;;;;;;;18.38;5.90;;;;;;;6.81;85.05;102570.78;5041750;28;20034;-71
2021/11/09 01:45:11;;;;;;;20.38;5.70;;;;;;;6.79;85.21;102569.84;5042699;28;20025;-71
2021/11/09 01:47:38;;;;;;;19.45;5.70;;;;;;;6.79;85.73;102568.97;5043428;28;20022;-71
2021/11/09 01:50:06;;;;;;;24.25;6.47;;;;;;;6.77;85.14;102573.22;5042548;28;20061;-71
2021/11/09 01:52:31;;;;;;;27.75;7.22;;;;;;;6.74;85.61;102562.63;5046742;28;20033;-71
2021/11/09 01:54:57;;;;;;;22.15;6.30;;;;;;;6.70;85.58;102553.78;5045183;28;20072;-71
2021/11/09 01:57:22;;;;;;;26.70;6.85;;;;;;;6.67;85.38;102553.63;5046507;28;20056;-71
2021/11/09 01:59:48;;;;;;;24.23;6.40;;;;;;;6.72;86.16;102548.63;5047443;28;20045;-71
2021/11/09 02:02:14;;;;;;;26.73;7.03;;;;;;;6.69;85.09;102546.78;5046597;28;20090;-72
2021/11/09 02:04:40;;;;;;;25.95;6.50;;;;;;;6.66;85.18;102546.66;5045831;28;20120;-73
2021/11/09 02:07:06;;;;;;;19.13;7.25;;;;;;;6.70;85.69;102545.94;5046425;28;20052;-71
2021/11/09 02:09:31;;;;;;;24.77;6.82;;;;;;;6.75;85.77;102543.53;5044347;28;20021;-70
2021/11/09 02:11:56;;;;;;;26.27;7.30;;;;;;;6.76;85.48;102543.56;5046742;28;20097;-72
2021/11/09 02:14:22;;;;;;;23.05;7.47;;;;;;;6.77;85.75;102547.09;5045816;28;20034;-71
2021/11/09 02:16:50;;;;;;;21.83;7.00;;;;;;;6.80;85.97;102540.25;5046058;28;20022;-71
2021/11/09 02:19:16;;;;;;;20.70;6.50;;;;;;;6.80;85.64;102544.59;5043898;28;20036;-71
2021/11/09 02:21:42;;;;;;;22.55;8.32;;;;;;;6.79;85.46;102543.72;5045804;28;20021;-70
2021/11/09 02:24:08;;;;;;;25.60;7.63;;;;;;;6.78;84.98;102554.97;5049091;28;20034;-72
2021/11/09 02:26:33;;;;;;;27.85;7.90;;;;;;;6.80;85.34;102547.22;5048912;28;20540;-71
2021/11/09 02:29:00;;;;;;;21.45;6.32;;;;;;;6.78;84.94;102548.88;5046750;28;20081;-71
2021/11/09 02:31:26;;;;;;;24.00;7.63;;;;;;;6.80;85.04;102547.22;5046257;28;20424;-72
2021/11/09 02:33:52;;;;;;;24.60;7.35;;;;;;;6.78;85.15;102544.53;5048585;28;20025;-72
2021/11/09 02:36:18;;;;;;;30.50;7.28;;;;;;;6.75;85.06;102548.75;5045114;28;20031;-71
2021/11/09 02:38:45;;;;;;;20.45;6.80;;;;;;;6.70;84.96;102547.66;5045510;28;20392;-71
2021/11/09 02:41:11;;;;;;;24.17;7.43;;;;;;;6.64;85.34;102543.97;5045159;28;20033;-71
2021/11/09 02:43:36;;;;;;;18.83;7.63;;;;;;;6.64;85.69;102545.69;5046679;28;20099;-72
2021/11/09 02:51:55;;;;;;;25.27;7.38;;;;;;;6.54;85.50;102547.03;5036462;28;20041;-71
2021/11/09 02:56:58;;;;;;;21.85;7.55;;;;;;;6.42;85.83;102555.22;5046010;28;20041;-71
2021/11/09 03:01:57;;;;;;;27.40;7.95;;;;;;;6.29;85.10;102554.63;5044948;28;20030;-70
2021/11/09 03:07:04;;;;;;;18.13;6.88;;;;;;;6.22;85.48;102556.09;5046515;28;20041;-72
2021/11/09 03:12:03;;;;;;;20.20;8.57;;;;;;;6.12;86.56;102570.44;5044976;28;20057;-71
2021/11/09 03:14:28;;;;;;;23.60;7.88;;;;;;;6.10;86.55;102566.00;5045293;28;20033;-71
2021/11/09 03:16:57;;;;;;;28.50;8.38;;;;;;;6.13;86.76;102563.53;5045639;28;20018;-71
2021/11/09 03:19:36;;;;;;;19.35;7.80;;;;;;;6.10;86.95;102559.03;5046506;28;20488;-71
2021/11/09 03:46:38;;;;;;;20.58;8.40;;;;;;;6.06;86.99;102570.19;5052363;28;20545;-71
2021/11/09 03:49:06;;;;;;;19.52;8.35;;;;;;;6.02;86.62;102566.53;5045046;28;20030;-71
2021/11/09 03:51:32;;;;;;;21.27;8.52;;;;;;;5.98;86.79;102564.63;5044420;28;20032;-71
2021/11/09 03:54:01;;;;;;;25.20;9.13;;;;;;;6.01;87.16;102572.59;5043287;28;20037;-71
2021/11/09 04:02:16;;;;;;;23.92;7.95;;;;;;;6.01;86.65;102556.03;5042115;28;20505;-71
2021/11/09 04:07:12;;;;;;;23.58;8.90;;;;;;;5.94;87.01;102562.66;5043021;28;20477;-71
2021/11/09 04:09:50;;;;;;;24.00;8.60;;;;;;;5.92;87.35;102561.72;5040580;28;20487;-71
2021/11/09 04:12:37;;;;;;;24.07;8.37;;;;;;;5.86;86.25;102566.66;5034945;28;20060;-71
2021/11/09 04:15:29;;;;;;;24.83;9.07;;;;;;;5.84;87.04;102576.09;5013725;28;20715;-72
2021/11/09 04:18:02;;;;;;;26.15;10.00;;;;;;;5.82;87.36;102585.59;5041887;28;20555;-69
2021/11/09 04:20:35;;;;;;;30.40;10.18;;;;;;;5.85;87.64;102576.19;5042335;28;20041;-70
2021/11/09 04:52:36;;;;;;;35.47;11.80;;;;;;;6.69;87.60;102565.06;4975194;28;20042;-72
2021/11/09 05:09:38;;;;;;;35.83;11.73;;;;;;;7.19;86.02;102581.91;4971727;28;20148;-71
2021/11/09 05:11:32;;;;;;;32.13;11.35;;;;;;;7.25;85.19;102577.78;5020029;28;20101;-71
2021/11/09 05:13:57;;;;;;;28.02;11.75;;;;;;;7.31;85.02;102581.50;5035729;28;20034;-72
2021/11/09 05:16:23;;;;;;;27.85;10.65;;;;;;;7.34;84.81;102580.75;5036900;28;20053;-72
2021/11/09 05:18:48;;;;;;;31.10;10.32;;;;;;;7.41;84.96;102580.16;5034830;28;20069;-71
2021/11/09 05:21:13;;;;;;;29.85;11.18;;;;;;;7.44;84.76;102576.75;5052415;28;20033;-72
2021/11/09 05:23:39;;;;;;;30.33;11.30;;;;;;;7.55;84.87;102585.91;5045101;28;20025;-72
2021/11/09 05:26:05;;;;;;;29.85;10.45;;;;;;;7.58;84.27;102593.88;5036672;28;20049;-72
2021/11/09 05:28:30;;;;;;;26.02;10.93;;;;;;;7.54;84.72;102590.28;5033185;28;20034;-71
2021/11/09 05:30:55;;;;;;;30.75;11.43;;;;;;;7.51;85.09;102581.41;5035432;28;20041;-71
2021/11/09 05:33:22;;;;;;;32.97;11.18;;;;;;;7.50;85.41;102579.59;5043526;28;20116;-70
2021/11/09 05:35:49;;;;;;;34.13;10.98;;;;;;;7.52;85.41;102596.25;5042745;28;20381;-71
2021/11/09 05:38:18;;;;;;;32.50;11.00;;;;;;;7.57;85.13;102592.09;5043350;28;20044;-71
2021/11/09 05:40:52;;;;;;;29.27;9.90;;;;;;;7.65;84.98;102595.00;5041617;28;20038;-71
2021/11/09 05:43:18;;;;;;;32.03;10.65;;;;;;;7.67;84.99;102593.34;5043091;28;20443;-70
2021/11/09 05:45:44;;;;;;;31.13;10.43;;;;;;;7.67;84.75;102595.97;5043200;28;20021;-71
2021/11/09 05:48:09;;;;;;;28.95;10.98;;;;;;;7.70;84.61;102598.69;5043527;28;20101;-72
2021/11/09 05:50:34;;;;;;;28.30;9.75;;;;;;;7.74;84.66;102600.59;5043273;28;20033;-71
2021/11/09 05:53:00;;;;;;;29.67;10.80;;;;;;;7.78;84.78;102607.72;5043285;28;20140;-72
2021/11/09 05:55:25;;;;;;;23.17;9.98;;;;;;;7.76;84.63;102602.44;5042041;28;20030;-71
2021/11/09 05:57:51;;;;;;;24.95;10.10;;;;;;;7.79;84.46;102604.28;5043567;28;20029;-71
2021/11/09 06:00:16;;;;;;;34.03;10.50;;;;;;;7.82;84.53;102596.53;5042841;28;20511;-72
2021/11/09 06:02:42;;;;;;;30.48;9.75;;;;;;;7.88;83.96;102606.34;5043105;28;20059;-70
2021/11/09 06:05:08;;;;;;;32.22;10.57;;;;;;;7.89;84.31;102603.78;5043141;28;20083;-70
2021/11/09 06:07:34;;;;;;;28.98;10.02;;;;;;;7.93;84.36;102604.81;5042368;28;20037;-71
2021/11/09 06:09:59;;;;;;;32.47;10.50;;;;;;;7.93;84.25;102607.41;5041544;28;20041;-71
2021/11/09 06:12:25;;;;;;;25.63;10.40;;;;;;;7.97;84.74;102604.06;5042505;28;20101;-70
2021/11/09 06:14:50;;;;;;;27.30;10.77;;;;;;;7.96;84.46;102613.66;5042440;28;20044;-72
2021/11/09 06:17:15;;;;;;;29.85;10.90;;;;;;;7.98;84.55;102605.88;5042527;28;20053;-71
2021/11/09 06:19:41;;;;;;;29.00;11.98;;;;;;;7.99;84.98;102608.53;5057711;28;20043;-70
2021/11/09 06:22:07;;;;;;;35.10;12.15;;;;;;;7.98;85.07;102600.63;5042387;28;20068;-70
2021/11/09 06:24:32;;;;;;;37.55;11.95;;;;;;;8.00;85.35;102606.81;5041256;28;20050;-71
2021/11/09 06:26:59;;;;;;;33.60;12.07;;;;;;;8.01;85.81;102611.19;5043193;28;20177;-71
2021/11/09 06:29:24;;;;;;;30.48;12.57;;;;;;;8.08;85.50;102612.34;5043277;28;20549;-70
2021/11/09 06:31:50;;;;;;;27.75;12.35;;;;;;;8.00;85.35;102610.31;5043376;28;20048;-72
2021/11/09 06:34:16;;;;;;;31.73;12.55;;;;;;;8.02;85.47;102613.00;5042505;28;20056;-72
2021/11/09 06:36:42;;;;;;;36.63;13.50;;;;;;;8.04;85.77;102618.28;5046498;28;20048;-71
2021/11/09 06:39:08;;;;;;;41.00;14.07;;;;;;;8.04;86.19;102621.81;5044831;28;20044;-71
2021/11/09 06:41:33;;;;;;;45.50;14.05;;;;;;;8.07;86.43;102621.94;5046148;28;20037;-70
2021/11/09 06:43:59;;;;;;;41.60;14.40;;;;;;;8.05;86.67;102627.91;5045951;28;20064;-71
2021/11/09 06:46:24;;;;;;;34.55;13.20;;;;;;;8.06;86.22;102633.22;5045500;28;20229;-71
2021/11/09 06:48:49;;;;;;;27.45;13.07;;;;;;;8.11;86.56;102628.13;5045401;28;20037;-73
2021/11/09 06:51:18;;;;;;;37.80;15.00;;;;;;;8.17;86.26;102634.50;5044928;28;20029;-71
2021/11/09 06:53:44;;;;;;;35.97;14.20;;;;;;;8.17;86.03;102644.09;5046218;28;20026;-72
2021/11/09 06:56:09;;;;;;;32.63;14.25;;;;;;;8.15;86.15;102637.91;5045651;28;20033;-70
2021/11/09 06:58:35;;;;;;;40.95;14.88;;;;;;;8.16;86.30;102639.69;5041759;28;20025;-69
2021/11/09 07:01:04;;;;;;;39.60;15.02;;;;;;;8.10;86.61;102642.97;5044530;28;20026;-71
2021/11/09 07:03:32;;;;;;;43.38;13.75;;;;;;;8.15;86.74;102640.53;5045291;28;20052;-71
2021/11/09 07:05:58;;;;;;;34.55;15.20;;;;;;;8.14;86.24;102639.63;5045116;28;20488;-71
2021/11/09 07:08:24;;;;;;;40.10;14.88;;;;;;;8.13;86.42;102635.22;5042650;28;20033;-71
2021/11/09 07:10:49;;;;;;;38.58;16.35;;;;;;;8.25;86.12;102640.03;5044578;28;20037;-72
2021/11/09 07:13:14;;;;;;;40.70;15.73;;;;;;;8.19;86.57;102648.53;5045400;28;20033;-72
2021/11/09 07:15:40;;;;;;;40.72;15.98;;;;;;;8.20;86.73;102654.66;5044462;28;20033;-71
2021/11/09 07:18:07;;;;;;;37.35;15.65;;;;;;;8.19;86.91;102660.75;5040869;28;20049;-71
2021/11/09 07:20:33;;;;;;;45.60;15.88;;;;;;;8.24;86.84;102653.06;5046146;28;20021;-71
2021/11/09 07:23:01;;;;;;;42.75;15.70;;;;;;;8.24;86.90;102656.59;5042991;28;20043;-71
2021/11/09 07:25:27;;;;;;;41.25;15.93;;;;;;;8.24;86.56;102660.91;5043525;28;20021;-71
2021/11/09 07:27:52;;;;;;;45.50;16.30;;;;;;;8.30;86.88;102666.38;5044462;28;20034;-71
2021/11/09 07:30:18;;;;;;;46.83;16.50;;;;;;;8.31;86.86;102674.28;5042900;28;20021;-71
2021/11/09 07:32:45;;;;;;;39.63;16.63;;;;;;;8.31;86.93;102678.66;5044320;28;20025;-71
2021/11/09 07:35:11;;;;;;;50.97;17.63;;;;;;;8.33;87.43;102683.09;5044014;28;20484;-69
2021/11/09 07:37:37;;;;;;;44.67;17.85;;;;;;;8.35;86.80;102678.78;5042399;28;20048;-68
2021/11/09 07:40:05;;;;;;;44.72;17.38;;;;;;;8.35;87.92;102681.41;5042308;28;20037;-70
2021/11/09 07:42:30;;;;;;;46.67;17.40;;;;;;;8.38;87.54;102676.31;5041450;28;20069;-69
2021/11/09 07:44:55;;;;;;;52.45;19.88;;;;;;;8.36;87.91;102685.84;5043830;28;20056;-58
2021/11/09 07:47:21;;;;;;;45.28;18.75;;;;;;;8.37;88.39;102686.72;5041098;28;20546;-68
2021/11/09 07:49:46;;;;;;;55.92;19.95;;;;;;;8.34;88.39;102686.63;5043996;28;20025;-68
2021/11/09 07:52:12;;;;;;;53.45;19.23;;;;;;;8.33;89.06;102688.34;5044600;28;20036;-68
2021/11/09 07:54:45;;;;;;;59.38;18.20;;;;;;;8.42;89.54;102690.44;5042898;28;20049;-68
2021/11/09 07:57:12;;;;;;;51.28;18.70;;;;;;;8.45;88.95;102687.94;5043021;28;20053;-67
2021/11/09 08:02:26;;;;;;;57.53;18.83;;;;;;;8.56;88.63;102691.84;5044901;28;20053;-68
2021/11/09 08:05:00;;;;;;;51.00;18.40;;;;;;;8.64;87.97;102691.22;5042469;28;20177;-68
2021/11/09 08:07:30;;;;;;;51.22;19.02;;;;;;;8.72;88.10;102692.41;5043427;28;20040;-66
2021/11/09 08:09:56;;;;;;;47.85;18.15;;;;;;;8.69;88.20;102694.91;5045129;28;20026;-67
2021/11/09 08:12:21;;;;;;;50.60;17.77;;;;;;;8.69;88.80;102701.03;5044564;28;20025;-67
2021/11/09 08:14:47;;;;;;;46.20;16.42;;;;;;;8.72;87.55;102701.13;5044797;28;20039;-67
2021/11/09 08:17:15;;;;;;;57.17;18.48;;;;;;;8.72;87.80;102698.53;5041341;28;20053;-67
2021/11/09 08:19:41;;;;;;;46.70;17.55;;;;;;;8.68;87.80;102696.63;5041934;28;20041;-67
2021/11/09 08:22:06;;;;;;;48.80;17.65;;;;;;;8.72;88.46;102695.91;5042689;28;20140;-67
2021/11/09 08:24:32;;;;;;;49.35;17.60;;;;;;;8.71;88.47;102688.84;5043316;28;20021;-67
2021/11/09 08:27:02;;;;;;;47.70;17.38;;;;;;;8.75;87.69;102695.09;5043069;28;20053;-67
2021/11/09 08:29:28;;;;;;;56.67;17.90;;;;;;;8.80;88.60;102693.53;5039448;28;20112;-67
2021/11/09 08:31:56;;;;;;;49.08;17.33;;;;;;;8.80;88.56;102685.69;5042546;28;20032;-68
2021/11/09 08:34:21;;;;;;;47.35;17.20;;;;;;;8.82;88.34;102686.63;5029531;28;20044;-68
2021/11/09 08:36:48;;;;;;;47.15;17.20;;;;;;;8.84;88.68;102684.94;5040555;28;20025;-67
2021/11/09 08:39:21;;;;;;;49.20;16.95;;;;;;;8.89;88.22;102685.13;5041699;28;20110;-68
2021/11/09 08:41:54;;;;;;;50.28;17.17;;;;;;;8.94;88.64;102688.78;5035035;28;20033;-68
2021/11/09 08:44:25;;;;;;;45.38;16.85;;;;;;;8.97;88.43;102691.50;5042304;28;20035;-68
2021/11/09 08:46:55;;;;;;;47.22;15.77;;;;;;;9.03;87.82;102693.47;5040170;28;20597;-68
2021/11/09 08:49:23;;;;;;;38.72;16.05;;;;;;;9.01;88.54;102690.78;5040139;28;20103;-68
2021/11/09 08:51:50;;;;;;;41.00;16.92;;;;;;;9.03;88.54;102694.34;5041552;28;20033;-68
2021/11/09 08:54:22;;;;;;;40.80;17.27;;;;;;;9.08;88.28;102691.88;5041632;28;20051;-68
2021/11/09 09:04:48;;;;;;;38.42;14.93;;;;;;;9.22;87.62;102694.97;5037063;28;20049;-67
2021/11/09 09:07:14;;;;;;;33.15;14.00;;;;;;;9.21;87.78;102696.72;5038420;28;20052;-67
2021/11/09 09:09:39;;;;;;;42.35;14.20;;;;;;;9.32;87.35;102695.34;5040022;28;20501;-68
2021/11/09 09:12:05;;;;;;;29.95;13.30;;;;;;;9.36;87.80;102701.56;5040684;28;20056;-68
2021/11/09 09:14:31;;;;;;;32.95;13.27;;;;;;;9.40;87.18;102697.31;5036804;28;20029;-68
2021/11/09 09:16:58;;;;;;;33.38;12.90;;;;;;;9.48;86.71;102701.06;5041897;28;20037;-68
2021/11/09 09:19:31;;;;;;;38.80;12.90;;;;;;;9.56;85.62;102704.84;5041852;28;20045;-68
2021/11/09 09:22:11;;;;;;;35.80;12.73;;;;;;;9.56;85.93;102705.75;5042253;28;20043;-69
2021/11/09 09:56:55;;;;;;;24.15;9.68;;;;;;;9.96;84.70;102708.69;5043932;28;20042;-69
2021/11/09 09:59:26;;;;;;;26.85;10.30;;;;;;;9.92;84.58;102712.09;5042942;28;20026;-66
2021/11/09 10:02:16;;;;;;;33.92;9.45;;;;;;;9.94;84.86;102705.16;5042886;28;20088;-67
2021/11/09 10:04:47;;;;;;;27.95;9.43;;;;;;;10.02;84.46;102714.16;5042831;28;20033;-67
2021/11/09 10:07:25;;;;;;;26.42;10.15;;;;;;;10.06;84.95;102715.16;5043114;28;20026;-67
2021/11/09 10:09:50;;;;;;;32.88;10.73;;;;;;;10.03;85.24;102720.31;5043164;28;20053;-67
2021/11/09 10:12:26;;;;;;;30.42;11.60;;;;;;;10.02;85.59;102713.25;5041807;28;20043;-67
2021/11/09 10:14:55;;;;;;;27.17;10.85;;;;;;;9.97;85.69;102712.25;5047751;28;20573;-66
2021/11/09 10:17:25;;;;;;;26.45;11.27;;;;;;;10.00;85.82;102713.22;5046713;28;20510;-66
2021/11/09 10:19:52;;;;;;;36.00;13.40;;;;;;;10.00;86.54;102712.31;5047180;28;20044;-66
2021/11/09 10:22:27;;;;;;;33.67;13.32;;;;;;;9.94;87.03;102705.16;5044369;28;20121;-66
2021/11/09 10:25:11;;;;;;;29.23;12.25;;;;;;;9.92;87.31;102710.38;5041065;28;20034;-66
2021/11/09 10:27:39;;;;;;;31.10;12.63;;;;;;;10.01;87.09;102720.25;5046452;28;20053;-66
2021/11/09 10:30:09;;;;;;;25.48;10.73;;;;;;;10.12;86.96;102702.19;5044954;28;20093;-65
2021/11/09 10:32:35;;;;;;;24.77;10.57;;;;;;;10.12;85.95;102702.19;5046326;28;20103;-66
2021/11/09 10:35:03;;;;;;;26.95;12.38;;;;;;;10.15;85.89;102720.66;5043638;28;20857;-66
2021/11/09 10:37:34;;;;;;;31.58;12.55;;;;;;;10.10;86.35;102710.03;5046106;28;20089;-66
2021/11/09 10:40:06;;;;;;;28.35;12.60;;;;;;;10.07;86.57;102706.41;5044578;28;21063;-66
2021/11/09 10:42:32;;;;;;;31.92;13.50;;;;;;;10.10;87.13;102712.66;5046233;28;20362;-66
2021/11/09 10:45:09;;;;;;;31.30;13.25;;;;;;;10.09;86.92;102709.97;5046674;28;20081;-66
2021/11/09 10:47:35;;;;;;;29.48;14.25;;;;;;;10.21;86.60;102712.06;5044767;28;20045;-66
2021/11/09 10:50:08;;;;;;;29.38;13.65;;;;;;;10.18;86.83;102709.38;5045844;28;20041;-67
2021/11/09 10:52:36;;;;;;;32.72;14.43;;;;;;;10.16;86.83;102711.94;5039779;28;20029;-67
2021/11/09 10:55:32;;;;;;;30.92;14.35;;;;;;;10.18;86.98;102714.63;5045877;28;20052;-66
2021/11/09 11:06:24;;;;;;;34.58;13.85;;;;;;;10.35;86.32;102708.16;5045926;28;20045;-67
2021/11/09 11:08:58;;;;;;;34.63;14.40;;;;;;;10.33;86.39;102704.59;5037695;28;20029;-66
2021/11/09 11:11:23;;;;;;;30.55;14.65;;;;;;;10.29;86.62;102707.94;5042443;28;20017;-66
2021/11/09 11:14:16;;;;;;;32.95;12.85;;;;;;;10.36;85.94;102712.59;5046005;28;20091;-67
2021/11/09 11:16:57;;;;;;;29.70;12.60;;;;;;;10.31;86.17;102701.91;5045147;28;20037;-66
2021/11/09 11:19:31;;;;;;;26.30;12.02;;;;;;;10.33;85.74;102705.47;5042854;28;20070;-66
2021/11/09 11:22:05;;;;;;;26.80;12.15;;;;;;;10.29;86.25;102710.59;5044766;28;20072;-66
2021/11/09 11:24:31;;;;;;;27.15;12.90;;;;;;;10.30;86.21;102705.41;5041886;28;20044;-66
2021/11/09 11:26:58;;;;;;;29.38;13.75;;;;;;;10.26;86.79;102700.84;5044799;28;20021;-66
2021/11/09 11:29:31;;;;;;;30.58;13.88;;;;;;;10.31;86.14;102703.66;5042238;28;20037;-67
2021/11/09 11:31:58;;;;;;;23.45;12.25;;;;;;;10.32;85.88;102698.47;5045635;28;20056;-67
2021/11/09 11:34:24;;;;;;;26.88;13.88;;;;;;;10.24;86.72;102704.28;5046052;28;20037;-67
2021/11/09 11:36:51;;;;;;;22.45;12.98;;;;;;;10.26;87.06;102702.59;5045873;28;20044;-66
2021/11/09 11:39:21;;;;;;;28.80;14.55;;;;;;;10.23;87.33;102700.78;5042191;28;20580;-66
2021/11/09 11:41:51;;;;;;;32.38;14.45;;;;;;;10.21;87.09;102704.19;5042908;28;20025;-66
2021/11/09 11:44:26;;;;;;;31.33;14.50;;;;;;;10.18;87.12;102696.25;5045272;28;20038;-66
2021/11/09 11:47:03;;;;;;;34.53;14.32;;;;;;;10.15;87.54;102697.00;5045621;28;20064;-65
2021/11/09 11:49:40;;;;;;;33.28;16.25;;;;;;;10.11;88.19;102693.44;5045257;28;20037;-66
2021/11/09 11:52:16;;;;;;;33.80;15.55;;;;;;;10.11;88.39;102696.06;5045532;28;20041;-66
2021/11/09 11:54:44;;;;;;;34.83;16.75;;;;;;;10.12;88.68;102689.94;5044911;28;20029;-66
2021/11/09 11:57:10;;;;;;;35.08;15.48;;;;;;;10.17;88.53;102686.56;5042625;28;20057;-67
2021/11/09 11:59:36;;;;;;;38.78;16.30;;;;;;;10.16;88.24;102688.31;5044683;28;20037;-66
2021/11/09 12:02:03;;;;;;;35.70;16.15;;;;;;;10.13;88.53;102680.31;5044457;28;20030;-67
2021/11/09 12:04:50;;;;;;;40.92;16.92;;;;;;;10.17;88.77;102676.97;5036463;28;20041;-67
2021/11/09 12:07:19;;;;;;;34.38;17.65;;;;;;;10.21;88.36;102672.66;5044802;28;20037;-68
2021/11/09 12:09:51;;;;;;;34.65;18.10;;;;;;;10.26;87.72;102676.31;5041522;28;20029;-67
2021/11/09 12:12:19;;;;;;;42.13;18.10;;;;;;;10.20;88.47;102666.53;5044618;28;20471;-67
2021/11/09 12:14:46;;;;;;;34.28;17.05;;;;;;;10.22;88.12;102659.56;5044750;28;20033;-67
2021/11/09 12:17:13;;;;;;;36.70;17.67;;;;;;;10.29;87.83;102660.66;5045374;28;20033;-68
2021/11/09 12:19:49;;;;;;;32.83;17.08;;;;;;;10.30;87.02;102659.78;5043959;28;20069;-67
2021/11/09 12:22:22;;;;;;;38.60;16.90;;;;;;;10.31;87.86;102665.13;5044770;28;20040;-69
2021/11/09 12:24:54;;;;;;;34.97;17.40;;;;;;;10.32;87.88;102661.69;5044086;28;20040;-67
2021/11/09 12:27:22;;;;;;;31.77;17.35;;;;;;;10.31;88.03;102652.00;5044843;28;20037;-67
2021/11/09 12:29:53;;;;;;;41.17;18.17;;;;;;;10.25;88.43;102657.06;5044374;28;20065;-67
2021/11/09 12:32:21;;;;;;;42.25;19.35;;;;;;;10.26;88.68;102655.31;5045261;28;20053;-68
2021/11/09 12:35:09;;;;;;;44.70;20.23;;;;;;;10.22;88.66;102661.31;5044062;28;20072;-68
2021/11/09 12:37:43;;;;;;;30.63;17.23;;;;;;;10.36;88.37;102656.47;5044799;28;20450;-68
2021/11/09 12:40:36;;;;;;;38.85;19.35;;;;;;;10.27;88.09;102654.47;5042885;28;20033;-68
2021/11/09 12:43:15;;;;;;;38.53;19.42;;;;;;;10.28;88.05;102659.78;5044436;28;20063;-68
2021/11/09 12:45:48;;;;;;;36.97;19.77;;;;;;;10.26;87.78;102650.03;5058120;28;20049;-68
2021/11/09 12:48:36;;;;;;;38.25;20.45;;;;;;;10.33;87.52;102649.41;5044550;28;20174;-68
2021/11/09 12:51:10;;;;;;;34.50;18.52;;;;;;;10.36;86.60;102644.25;5043315;28;20080;-67
2021/11/09 12:53:47;;;;;;;35.58;18.25;;;;;;;10.33;87.47;102638.91;5044105;28;20029;-68
2021/11/09 12:56:16;;;;;;;43.50;19.17;;;;;;;10.29;87.63;102644.88;5044503;28;20017;-67
2021/11/09 12:58:57;;;;;;;37.55;20.88;;;;;;;10.25;87.95;102645.66;5043788;28;20033;-68
2021/11/09 13:04:02;;;;;;;36.88;18.95;;;;;;;10.28;87.74;102643.09;5044012;28;20072;-68
2021/11/09 13:07:30;;;;;;;38.33;19.60;;;;;;;10.32;87.24;102645.00;5044345;28;20021;-69
2021/11/09 13:09:27;;;;;;;40.85;19.63;;;;;;;10.33;87.00;102647.66;5036821;28;20057;-68
2021/11/09 13:11:57;;;;;;;44.00;19.73;;;;;;;10.33;87.11;102647.66;5043739;28;20084;-69
2021/11/09 13:14:34;;;;;;;40.42;19.70;;;;;;;10.36;86.79;102648.59;5043909;28;20048;-68
2021/11/09 13:17:08;;;;;;;50.53;20.02;;;;;;;10.38;86.18;102650.44;5043987;28;20085;-68
2021/11/09 13:19:38;;;;;;;46.65;20.45;;;;;;;10.33;86.39;102654.66;5042549;28;20045;-68
2021/11/09 13:22:09;;;;;;;43.85;22.17;;;;;;;10.30;86.85;102649.28;5043900;28;20044;-68
2021/11/09 13:24:41;;;;;;;46.47;21.27;;;;;;;10.30;86.85;102649.28;5043332;28;20025;-66
2021/11/09 13:27:10;;;;;;;46.60;21.40;;;;;;;10.28;86.44;102651.91;5044198;28;20108;-69
2021/11/09 13:29:45;;;;;;;52.25;21.70;;;;;;;10.20;86.82;102644.63;5042295;28;20650;-69
2021/11/09 13:32:11;;;;;;;48.47;22.02;;;;;;;10.26;86.46;102640.41;5043696;28;20029;-69
2021/11/09 13:34:39;;;;;;;49.10;22.98;;;;;;;10.34;86.27;102646.84;5043142;28;20508;-67
2021/11/09 13:37:04;;;;;;;51.17;22.77;;;;;;;10.28;86.58;102644.00;5043801;28;20029;-68
2021/11/09 13:39:30;;;;;;;46.03;21.95;;;;;;;10.28;86.54;102637.84;5039352;28;20025;-68
2021/11/09 13:41:57;;;;;;;50.97;22.05;;;;;;;10.25;86.74;102640.41;5038027;28;20037;-68
2021/11/09 13:44:22;;;;;;;46.25;20.15;;;;;;;10.23;86.61;102640.34;5031343;28;20040;-68
2021/11/09 13:46:48;;;;;;;43.85;20.67;;;;;;;10.27;86.13;102634.34;5041927;28;20037;-68
2021/11/09 13:49:16;;;;;;;48.90;21.20;;;;;;;10.25;86.84;102637.78;5044937;28;20649;-68